Time;durP1;ratioP1;P1;durP2;ratioP2;P2;SDS_P1;SDS_P2;PMS_P1;PMS_P2;Temp;Humidity;BMP_temperature;BMP_pressure;BME280_temperature;BME280_humidity;BME280_pressure;Samples;Min_cycle;Max_cycle;Signal;HPM_P1;HPM_P2
2022/05/30 00:00:55;;;;;;;;;;;8.30;99.90;;;;;;4992931;28;20027;-77
2022/05/30 00:03:20;;;;;;;;;;;8.20;99.90;;;;;;4991213;28;20382;-77
2022/05/30 00:05:48;;;;;;;;;;;8.10;99.90;;;;;;4992528;28;19937;-77
2022/05/30 00:08:17;;;;;;;;;;;8.10;99.90;;;;;;4994802;28;19973;-77
2022/05/30 00:10:43;;;;;;;;;;;8.00;99.90;;;;;;4994947;28;19925;-77
2022/05/30 00:13:09;;;;;;;;;;;7.90;99.90;;;;;;4995143;28;20280;-77
2022/05/30 00:15:36;;;;;;;;;;;7.80;99.90;;;;;;5003920;28;19972;-77
2022/05/30 00:18:01;;;;;;;;;;;7.80;99.90;;;;;;5012425;28;19936;-77
2022/05/30 00:20:27;;;;;;;;;;;7.60;99.90;;;;;;5015252;28;19925;-76
2022/05/30 00:22:52;;;;;;;;;;;7.60;99.90;;;;;;5014788;28;20400;-77
2022/05/30 00:25:18;;;;;;;;;;;7.50;99.90;;;;;;5015717;28;19926;-77
2022/05/30 00:27:44;;;;;;;;;;;7.40;99.90;;;;;;5013616;28;19926;-76
2022/05/30 00:30:10;;;;;;;;;;;7.30;99.90;;;;;;5011944;28;19929;-76
2022/05/30 00:32:36;;;;;;;;;;;7.30;99.90;;;;;;5015310;28;19929;-77
2022/05/30 00:35:02;;;;;;;;;;;7.20;99.90;;;;;;5014632;28;20024;-77
2022/05/30 00:37:28;;;;;;;;;;;7.10;99.90;;;;;;5014667;28;20032;-77
2022/05/30 00:39:54;;;;;;;;;;;7.00;99.90;;;;;;5014028;28;20028;-77
2022/05/30 00:42:21;;;;;;;;;;;7.00;99.90;;;;;;5014455;28;19996;-76
2022/05/30 00:44:48;;;;;;;;;;;7.00;99.90;;;;;;5013779;28;19926;-77
2022/05/30 00:47:14;;;;;;;;;;;6.90;99.90;;;;;;4993917;28;19948;-77
2022/05/30 00:49:41;;;;;;;;;;;6.90;99.90;;;;;;4995128;28;20381;-77
2022/05/30 00:52:08;;;;;;;;;;;6.80;99.90;;;;;;4993701;28;19925;-77
2022/05/30 00:54:37;;;;;;;;;;;6.90;99.90;;;;;;4995752;28;19921;-77
2022/05/30 00:57:20;;;;;;;;;;;6.80;99.90;;;;;;4993906;28;19926;-77
2022/05/30 00:59:48;;;;;;;;;;;6.80;99.90;;;;;;4994055;28;19925;-77
2022/05/30 01:02:14;;;;;;;;;;;6.80;99.90;;;;;;4993407;28;19930;-77
2022/05/30 01:07:24;;;;;;;;;;;6.80;99.90;;;;;;4994626;28;19926;-76
2022/05/30 01:09:50;;;;;;;;;;;6.90;99.90;;;;;;4994338;28;19926;-76
2022/05/30 01:12:16;;;;;;;;;;;7.00;99.90;;;;;;4994747;28;19980;-77
2022/05/30 01:14:43;;;;;;;;;;;6.90;99.90;;;;;;4993910;28;20382;-76
2022/05/30 01:17:10;;;;;;;;;;;8.10;99.90;;;;;;4992469;28;20370;-77
2022/05/30 01:19:42;;;;;;;;;;;6.90;99.90;;;;;;4993571;28;19933;-77
2022/05/30 01:22:26;;;;;;;;;;;6.90;99.90;;;;;;4993409;28;19981;-76
2022/05/30 01:25:14;;;;;;;;;;;6.90;99.90;;;;;;4993448;28;19926;-76
2022/05/30 01:27:48;;;;;;;;;;;6.90;99.90;;;;;;5001818;28;20017;-77
2022/05/30 01:30:15;;;;;;;;;;;6.90;99.90;;;;;;5011219;28;19933;-76
2022/05/30 01:32:40;;;;;;;;;;;7.00;99.90;;;;;;5014184;28;19926;-76
2022/05/30 01:35:06;;;;;;;;;;;7.10;99.90;;;;;;5014064;28;20377;-76
2022/05/30 01:37:35;;;;;;;;;;;7.10;99.90;;;;;;5011982;28;19929;-76
2022/05/30 01:40:00;;;;;;;;;;;7.10;99.90;;;;;;5014114;28;20340;-76
2022/05/30 01:42:26;;;;;;;;;;;7.20;99.90;;;;;;5008937;28;20033;-77
2022/05/30 01:44:52;;;;;;;;;;;7.20;99.90;;;;;;4992830;28;19926;-76
2022/05/30 01:47:17;;;;;;;;;;;7.30;99.90;;;;;;4992400;28;20305;-77
2022/05/30 01:49:43;;;;;;;;;;;7.30;99.90;;;;;;4994297;28;19972;-77
2022/05/30 01:52:09;;;;;;;;;;;7.40;99.90;;;;;;4995398;28;20012;-77
2022/05/30 01:54:34;;;;;;;;;;;7.50;99.90;;;;;;5012308;28;19926;-76
2022/05/30 01:57:00;;;;;;;;;;;7.50;99.90;;;;;;5013362;28;19929;-77
2022/05/30 01:59:26;;;;;;;;;;;7.60;99.90;;;;;;5011770;28;19932;-76
2022/05/30 02:01:52;;;;;;;;;;;7.70;99.90;;;;;;5013640;28;19929;-76
2022/05/30 02:04:18;;;;;;;;;;;7.80;99.90;;;;;;5013387;28;19925;-76
2022/05/30 02:06:44;;;;;;;;;;;8.00;99.90;;;;;;5011648;28;19925;-76
2022/05/30 02:09:09;;;;;;;;;;;7.90;99.90;;;;;;5011520;28;19925;-76
2022/05/30 02:11:35;;;;;;;;;;;7.90;99.90;;;;;;5011968;28;20020;-76
2022/05/30 02:14:01;;;;;;;;;;;8.00;99.90;;;;;;5011462;28;19929;-76
2022/05/30 02:19:10;;;;;;;;;;;8.00;99.90;;;;;;5011122;28;19925;-76
2022/05/30 02:21:36;;;;;;;;;;;8.50;99.90;;;;;;5013251;28;19951;-76
2022/05/30 02:24:03;;;;;;;;;;;8.10;99.90;;;;;;5011072;28;19926;-76
2022/05/30 02:26:28;;;;;;;;;;;8.10;99.90;;;;;;4992913;28;19937;-76
2022/05/30 02:28:53;;;;;;;;;;;8.20;99.90;;;;;;4991722;28;19926;-76
2022/05/30 02:31:19;;;;;;;;;;;8.20;99.90;;;;;;4991795;28;20416;-76
2022/05/30 02:36:41;;;;;;;;;;;8.20;99.90;;;;;;4993562;28;19926;-76
2022/05/30 02:39:08;;;;;;;;;;;8.20;99.90;;;;;;4993265;28;19925;-76
2022/05/30 02:41:33;;;;;;;;;;;8.20;99.90;;;;;;4993713;28;20038;-76
2022/05/30 02:43:59;;;;;;;;;;;8.20;99.90;;;;;;4991996;28;19977;-76
2022/05/30 02:46:24;;;;;;;;;;;8.20;99.90;;;;;;4991775;28;19933;-76
2022/05/30 02:48:50;;;;;;;;;;;8.20;99.90;;;;;;4992577;28;19926;-76
2022/05/30 02:51:15;;;;;;;;;;;8.20;99.90;;;;;;4992448;28;19926;-76
2022/05/30 02:53:41;;;;;;;;;;;8.20;99.90;;;;;;4991566;28;20373;-76
2022/05/30 02:56:08;;;;;;;;;;;8.20;99.90;;;;;;4992883;28;19926;-76
2022/05/30 02:58:33;;;;;;;;;;;8.20;99.90;;;;;;5011896;28;19926;-76
2022/05/30 03:00:59;;;;;;;;;;;8.20;99.90;;;;;;5010914;28;19968;-76
2022/05/30 03:03:24;;;;;;;;;;;8.20;99.90;;;;;;5012779;28;20024;-76
2022/05/30 03:05:50;;;;;;;;;;;8.30;99.90;;;;;;5013123;28;20269;-76
2022/05/30 03:08:15;;;;;;;;;;;8.30;99.90;;;;;;5010325;28;19929;-76
2022/05/30 03:10:41;;;;;;;;;;;8.30;99.90;;;;;;5011376;28;19984;-76
2022/05/30 03:13:06;;;;;;;;;;;8.30;99.90;;;;;;5009432;28;19925;-76
2022/05/30 03:15:32;;;;;;;;;;;8.30;99.90;;;;;;5012048;28;19925;-76
2022/05/30 03:17:58;;;;;;;;;;;8.30;99.90;;;;;;5011083;28;20032;-76
2022/05/30 03:20:24;;;;;;;;;;;8.40;99.90;;;;;;5011339;28;19932;-76
2022/05/30 03:22:49;;;;;;;;;;;8.40;99.90;;;;;;5010510;28;20012;-76
2022/05/30 03:25:15;;;;;;;;;;;8.40;99.90;;;;;;5012510;28;20359;-76
2022/05/30 03:27:41;;;;;;;;;;;8.40;99.90;;;;;;5010991;28;19929;-76
2022/05/30 03:30:07;;;;;;;;;;;8.40;99.90;;;;;;5010055;28;20345;-76
2022/05/30 03:32:33;;;;;;;;;;;8.40;99.90;;;;;;5009293;28;19925;-76
2022/05/30 03:34:59;;;;;;;;;;;8.50;99.90;;;;;;5012676;28;19931;-76
2022/05/30 03:37:25;;;;;;;;;;;8.40;99.90;;;;;;5011446;28;19929;-76
2022/05/30 03:39:50;;;;;;;;;;;8.50;99.90;;;;;;5013132;28;19925;-77
2022/05/30 03:42:16;;;;;;;;;;;8.50;99.90;;;;;;5015723;28;20391;-78
2022/05/30 03:44:42;;;;;;;;;;;8.50;99.90;;;;;;5014898;28;20001;-78
2022/05/30 03:47:08;;;;;;;;;;;8.50;99.90;;;;;;5015651;28;20001;-77
2022/05/30 03:49:33;;;;;;;;;;;8.50;99.90;;;;;;5015886;28;20360;-77
2022/05/30 03:51:59;;;;;;;;;;;8.50;99.90;;;;;;5013730;28;20028;-77
2022/05/30 03:54:25;;;;;;;;;;;8.50;99.90;;;;;;5014477;28;20012;-78
2022/05/30 03:56:50;;;;;;;;;;;8.50;99.90;;;;;;5015823;28;19951;-78
2022/05/30 03:59:16;;;;;;;;;;;8.50;99.90;;;;;;5014936;28;19932;-78
2022/05/30 04:01:41;;;;;;;;;;;8.50;99.90;;;;;;5015759;28;20287;-78
2022/05/30 04:04:07;;;;;;;;;;;8.50;99.90;;;;;;5013910;28;19925;-77
2022/05/30 04:06:32;;;;;;;;;;;8.50;99.90;;;;;;4995818;28;19925;-78
2022/05/30 04:08:58;;;;;;;;;;;8.50;99.90;;;;;;4994760;28;19926;-77
2022/05/30 04:11:23;;;;;;;;;;;8.50;99.90;;;;;;5002251;28;20270;-77
2022/05/30 04:13:49;;;;;;;;;;;8.50;99.90;;;;;;5014547;28;19948;-77
2022/05/30 04:16:15;;;;;;;;;;;8.50;99.90;;;;;;5013800;28;19989;-77
2022/05/30 04:18:44;;;;;;;;;;;8.40;99.90;;;;;;5013269;28;19926;-77
2022/05/30 04:21:10;;;;;;;;;;;8.40;99.90;;;;;;5012442;28;19925;-77
2022/05/30 04:23:36;;;;;;;;;;;8.40;99.90;;;;;;5014041;28;19931;-77
2022/05/30 04:26:05;;;;;;;;;;;8.60;99.90;;;;;;5012936;28;19937;-78
2022/05/30 04:28:31;;;;;;;;;;;8.30;99.90;;;;;;5016688;28;19936;-77
2022/05/30 04:30:56;;;;;;;;;;;8.30;99.90;;;;;;5018444;28;20288;-77
2022/05/30 04:33:22;;;;;;;;;;;8.20;99.90;;;;;;5013132;28;19926;-77
2022/05/30 04:35:47;;;;;;;;;;;8.10;99.90;;;;;;5014163;28;20389;-77
2022/05/30 04:38:13;;;;;;;;;;;8.00;99.90;;;;;;5013838;28;19952;-78
2022/05/30 04:40:38;;;;;;;;;;;8.00;99.90;;;;;;5014180;28;20293;-77
2022/05/30 04:43:04;;;;;;;;;;;8.00;99.90;;;;;;5017160;28;19973;-77
2022/05/30 04:45:29;;;;;;;;;;;8.00;99.90;;;;;;5008166;28;19926;-77
2022/05/30 04:47:55;;;;;;;;;;;8.00;99.90;;;;;;5003517;28;20318;-77
2022/05/30 04:50:20;;;;;;;;;;;8.00;99.90;;;;;;5001680;28;19930;-77
2022/05/30 04:52:46;;;;;;;;;;;8.00;99.90;;;;;;5001663;28;19930;-77
2022/05/30 04:55:13;;;;;;;;;;;8.00;99.90;;;;;;5002708;28;19925;-76
2022/05/30 04:57:42;;;;;;;;;;;8.10;99.90;;;;;;5005272;28;19926;-75
2022/05/30 05:00:08;;;;;;;;;;;8.20;99.90;;;;;;5001753;28;19926;-73
2022/05/30 05:02:34;;;;;;;;;;;8.30;99.90;;;;;;5000990;28;19930;-78
2022/05/30 05:04:59;;;;;;;;;;;7.80;99.90;;;;;;5004299;28;19988;-79
2022/05/30 05:07:26;;;;;;;;;;;8.40;99.90;;;;;;5029134;28;19931;-79
2022/05/30 05:09:55;;;;;;;;;;;8.80;99.90;;;;;;5022254;28;19979;-76
2022/05/30 05:12:20;;;;;;;;;;;8.50;99.90;;;;;;5013094;28;19932;-78
2022/05/30 05:14:46;;;;;;;;;;;8.60;99.90;;;;;;5012107;28;20301;-79
2022/05/30 05:17:12;;;;;;;;;;;8.80;99.90;;;;;;5009800;28;19937;-72
2022/05/30 05:19:39;;;;;;;;;;;8.90;99.90;;;;;;5017779;28;19933;-71
2022/05/30 05:22:05;;;;;;;;;;;9.10;99.90;;;;;;5014710;28;19971;-72
2022/05/30 05:24:31;;;;;;;;;;;9.30;99.90;;;;;;5013052;28;19998;-77
2022/05/30 05:26:57;;;;;;;;;;;9.40;99.90;;;;;;5012860;28;19926;-73
2022/05/30 05:29:22;;;;;;;;;;;9.50;99.90;;;;;;5013002;28;19933;-76
2022/05/30 05:31:48;;;;;;;;;;;9.60;99.90;;;;;;5012579;28;19976;-74
2022/05/30 05:34:14;;;;;;;;;;;9.70;99.90;;;;;;5013471;28;19933;-78
2022/05/30 05:36:42;;;;;;;;;;;10.60;99.90;;;;;;5001891;28;19949;-71
2022/05/30 05:39:08;;;;;;;;;;;9.80;99.90;;;;;;5004490;28;19926;-78
2022/05/30 05:41:37;;;;;;;;;;;9.80;99.90;;;;;;4991668;28;19926;-79
2022/05/30 05:44:02;;;;;;;;;;;9.80;99.90;;;;;;4991715;28;20358;-78
2022/05/30 05:46:29;;;;;;;;;;;9.80;99.90;;;;;;4991188;28;19936;-79
2022/05/30 05:48:55;;;;;;;;;;;9.80;99.90;;;;;;4992231;28;19988;-75
2022/05/30 05:51:21;;;;;;;;;;;9.90;99.90;;;;;;4991516;28;19977;-77
2022/05/30 05:53:47;;;;;;;;;;;10.00;99.90;;;;;;4993658;28;19988;-75
2022/05/30 05:56:17;;;;;;;;;;;10.00;99.90;;;;;;4993271;28;20336;-77
2022/05/30 05:58:42;;;;;;;;;;;10.10;99.90;;;;;;4991917;28;20381;-78
2022/05/30 06:01:16;;;;;;;;;;;10.20;99.90;;;;;;4993494;28;19981;-82
2022/05/30 06:03:42;;;;;;;;;;;10.40;99.90;;;;;;4993822;28;19929;-77
2022/05/30 06:06:08;;;;;;;;;;;10.60;99.90;;;;;;4992428;28;20278;-79
2022/05/30 06:08:33;;;;;;;;;;;10.60;99.90;;;;;;4993357;28;19925;-76
2022/05/30 06:11:05;;;;;;;;;;;10.80;99.90;;;;;;5019722;28;19996;-79
2022/05/30 06:13:31;;;;;;;;;;;10.90;99.90;;;;;;5028615;28;19925;-78
2022/05/30 06:15:56;;;;;;;;;;;11.10;99.90;;;;;;5031684;28;20292;-80
2022/05/30 06:18:22;;;;;;;;;;;10.90;99.90;;;;;;5017894;28;19944;-82
2022/05/30 06:20:47;;;;;;;;;;;11.00;99.90;;;;;;4993350;28;20410;-81
2022/05/30 06:23:13;;;;;;;;;;;10.90;99.90;;;;;;5002514;28;19929;-80
2022/05/30 06:25:38;;;;;;;;;;;10.90;99.90;;;;;;5011159;28;19980;-82
2022/05/30 06:28:04;;;;;;;;;;;11.40;99.90;;;;;;5026046;28;19925;-80
2022/05/30 06:30:29;;;;;;;;;;;11.00;99.90;;;;;;5018215;28;19929;-79
2022/05/30 06:32:55;;;;;;;;;;;11.10;99.90;;;;;;5016481;28;19929;-77
2022/05/30 06:35:20;;;;;;;;;;;11.10;99.90;;;;;;5030871;28;20402;-75
2022/05/30 06:37:46;;;;;;;;;;;11.30;99.90;;;;;;5021912;28;19956;-72
2022/05/30 06:40:13;;;;;;;;;;;11.60;99.90;;;;;;5019594;28;19928;-73
2022/05/30 06:42:38;;;;;;;;;;;11.70;99.90;;;;;;5015410;28;19925;-75
2022/05/30 06:45:04;;;;;;;;;;;11.90;99.90;;;;;;5011093;28;20393;-75
2022/05/30 06:47:29;;;;;;;;;;;11.90;99.90;;;;;;5011549;28;20412;-74
2022/05/30 06:49:55;;;;;;;;;;;12.10;99.90;;;;;;5011167;28;19936;-75
2022/05/30 06:52:20;;;;;;;;;;;12.30;99.90;;;;;;5012044;28;19926;-75
2022/05/30 06:54:46;;;;;;;;;;;12.30;99.90;;;;;;4998694;28;20390;-74
2022/05/30 06:59:56;;;;;;;;;;;12.70;99.90;;;;;;4995222;28;19929;-74
2022/05/30 07:02:21;;;;;;;;;;;12.90;99.90;;;;;;5009772;28;19930;-73
2022/05/30 07:04:47;;;;;;;;;;;13.00;99.90;;;;;;5011294;28;19961;-73
2022/05/30 07:07:13;;;;;;;;;;;13.00;99.90;;;;;;5010132;28;19952;-74
2022/05/30 07:09:38;;;;;;;;;;;13.00;99.90;;;;;;5011248;28;20357;-69
2022/05/30 07:12:06;;;;;;;;;;;13.00;99.90;;;;;;5012098;28;19926;-74
2022/05/30 07:14:31;;;;;;;;;;;13.00;99.90;;;;;;5012954;28;20408;-73
2022/05/30 07:16:57;;;;;;;;;;;13.10;99.90;;;;;;5013821;28;19926;-76
2022/05/30 07:19:22;;;;;;;;;;;13.40;99.90;;;;;;5023632;28;19967;-77
2022/05/30 07:21:48;;;;;;;;;;;14.00;99.90;;;;;;5036760;28;19960;-76
2022/05/30 07:24:13;;;;;;;;;;;14.90;99.90;;;;;;5031754;28;20009;-75
2022/05/30 07:26:39;;;;;;;;;;;15.40;99.90;;;;;;5015445;28;19953;-74
2022/05/30 07:29:05;;;;;;;;;;;15.60;99.90;;;;;;5015569;28;19925;-72
2022/05/30 07:31:30;;;;;;;;;;;15.70;99.90;;;;;;5027485;28;20332;-73
2022/05/30 07:33:57;;;;;;;;;;;15.50;99.90;;;;;;5019086;28;19933;-72
2022/05/30 07:36:24;;;;;;;;;;;15.50;99.90;;;;;;5016609;28;20799;-72
2022/05/30 07:38:50;;;;;;;;;;;15.40;99.90;;;;;;5018777;28;19926;-74
2022/05/30 07:41:16;;;;;;;;;;;15.60;99.90;;;;;;5014919;28;20373;-76
2022/05/30 07:43:43;;;;;;;;;;;16.20;99.90;;;;;;5014457;28;19931;-69
2022/05/30 07:46:10;;;;;;;;;;;17.20;99.90;;;;;;5029221;28;19925;-69
2022/05/30 07:48:36;;;;;;;;;;;18.10;99.90;;;;;;5036463;28;19933;-70
2022/05/30 07:51:02;;;;;;;;;;;18.80;98.70;;;;;;5036202;28;20392;-70
2022/05/30 07:53:28;;;;;;;;;;;19.10;97.70;;;;;;5038265;28;19925;-73
2022/05/30 07:55:53;;;;;;;;;;;18.90;97.00;;;;;;5037321;28;19951;-71
2022/05/30 07:58:21;;;;;;;;;;;18.80;97.70;;;;;;5015928;28;20020;-72
2022/05/30 08:00:52;;;;;;;;;;;18.70;97.70;;;;;;5000476;28;19929;-69
2022/05/30 08:03:18;;;;;;;;;;;18.60;96.40;;;;;;4997678;28;19961;-76
2022/05/30 08:05:43;;;;;;;;;;;18.20;96.90;;;;;;4998923;28;20313;-72
2022/05/30 08:08:09;;;;;;;;;;;17.80;97.60;;;;;;4998288;28;19929;-73
2022/05/30 08:10:35;;;;;;;;;;;17.30;97.70;;;;;;4998043;28;20340;-71
2022/05/30 08:13:00;;;;;;;;;;;16.80;98.40;;;;;;4998132;28;19945;-71
2022/05/30 08:15:26;;;;;;;;;;;16.80;99.60;;;;;;4998568;28;19934;-71
2022/05/30 08:17:55;;;;;;;;;;;16.40;99.40;;;;;;4998093;28;19934;-71
2022/05/30 08:20:25;;;;;;;;;;;16.30;99.40;;;;;;4998173;28;20407;-71
2022/05/30 08:22:50;;;;;;;;;;;16.10;99.70;;;;;;4998649;28;19976;-70
2022/05/30 08:25:17;;;;;;;;;;;15.70;99.90;;;;;;4996441;28;19996;-70
2022/05/30 08:27:43;;;;;;;;;;;15.40;99.90;;;;;;4995659;28;20025;-70
2022/05/30 08:30:09;;;;;;;;;;;15.20;99.90;;;;;;5011856;28;20377;-71
2022/05/30 08:32:36;;;;;;;;;;;15.20;99.90;;;;;;5008779;28;19933;-72
2022/05/30 08:35:04;;;;;;;;;;;15.00;99.90;;;;;;5010087;28;19960;-73
2022/05/30 08:37:31;;;;;;;;;;;15.20;99.90;;;;;;5011432;28;20039;-72
2022/05/30 08:42:49;;;;;;;;;;;16.50;99.90;;;;;;5004634;28;19925;-70
2022/05/30 08:45:16;;;;;;;;;;;16.40;99.90;;;;;;5033235;28;19940;-74
2022/05/30 08:47:47;;;;;;;;;;;16.50;99.90;;;;;;5006483;28;19952;-72
2022/05/30 08:50:22;;;;;;;;;;;15.60;99.90;;;;;;5019304;28;19937;-72
2022/05/30 08:53:02;;;;;;;;;;;15.30;99.90;;;;;;4996689;28;19929;-70
2022/05/30 08:55:54;;;;;;;;;;;15.10;99.90;;;;;;5001292;28;19930;-70
2022/05/30 08:58:19;;;;;;;;;;;15.00;99.90;;;;;;5004311;28;20317;-71
2022/05/30 09:00:48;;;;;;;;;;;14.90;99.90;;;;;;5001570;28;20024;-67
2022/05/30 09:03:17;;;;;;;;;;;15.00;99.90;;;;;;5003945;28;20344;-69
2022/05/30 09:05:49;;;;;;;;;;;15.40;99.90;;;;;;5003821;28;19925;-68
2022/05/30 09:08:21;;;;;;;;;;;15.50;99.90;;;;;;5001191;28;19932;-69
2022/05/30 09:10:59;;;;;;;;;;;15.80;99.70;;;;;;5002136;28;20301;-69
2022/05/30 09:13:33;;;;;;;;;;;16.00;99.90;;;;;;5001682;28;20020;-70
2022/05/30 09:15:59;;;;;;;;;;;16.00;99.90;;;;;;5002634;28;19925;-76
2022/05/30 09:18:33;;;;;;;;;;;15.90;99.90;;;;;;5003902;28;19972;-74
2022/05/30 09:20:59;;;;;;;;;;;15.60;99.90;;;;;;5002640;28;20048;-75
2022/05/30 09:23:25;;;;;;;;;;;15.60;99.90;;;;;;5001477;28;20330;-76
2022/05/30 09:25:56;;;;;;;;;;;17.20;99.90;;;;;;5003238;28;19995;-75
2022/05/30 09:28:27;;;;;;;;;;;17.90;99.70;;;;;;5002513;28;19964;-77
2022/05/30 09:31:06;;;;;;;;;;;17.80;96.80;;;;;;5003643;28;20289;-76
2022/05/30 09:33:33;;;;;;;;;;;17.70;98.40;;;;;;5005405;28;19929;-79
2022/05/30 09:36:10;;;;;;;;;;;17.20;98.00;;;;;;5001335;28;19929;-77
2022/05/30 09:38:43;;;;;;;;;;;16.90;97.50;;;;;;5004708;28;20381;-76
2022/05/30 09:41:28;;;;;;;;;;;17.20;98.50;;;;;;5003937;28;20354;-75
2022/05/30 09:44:17;;;;;;;;;;;17.30;97.70;;;;;;5000214;28;19926;-78
2022/05/30 09:46:56;;;;;;;;;;;17.50;97.90;;;;;;4985107;28;20289;-76
2022/05/30 09:49:48;;;;;;;;;;;18.50;97.50;;;;;;5003352;28;19933;-76
2022/05/30 09:52:20;;;;;;;;;;;19.80;94.60;;;;;;4999920;28;20396;-75
2022/05/30 09:54:45;;;;;;;;;;;20.10;93.50;;;;;;5001031;28;19930;-75
2022/05/30 09:57:13;;;;;;;;;;;19.70;94.60;;;;;;5001591;28;20377;-75
2022/05/30 09:59:44;;;;;;;;;;;19.30;95.10;;;;;;5000324;28;19990;-75
2022/05/30 10:02:20;;;;;;;;;;;18.90;94.20;;;;;;4992047;28;20532;-78
2022/05/30 10:04:46;;;;;;;;;;;18.60;95.30;;;;;;4992249;28;19925;-80
2022/05/30 10:07:16;;;;;;;;;;;18.30;95.50;;;;;;4994552;28;19929;-75
2022/05/30 10:09:58;;;;;;;;;;;18.10;95.50;;;;;;5011599;28;19941;-75
2022/05/30 10:12:30;;;;;;;;;;;18.20;96.20;;;;;;5011821;28;19941;-69
2022/05/30 10:14:55;;;;;;;;;;;18.30;96.00;;;;;;5013119;28;19929;-69
2022/05/30 10:17:27;;;;;;;;;;;18.20;95.30;;;;;;5010011;28;20399;-69
2022/05/30 10:19:53;;;;;;;;;;;18.10;95.10;;;;;;5011676;28;19979;-70
2022/05/30 10:28:20;;;;;;;;;;;17.80;96.20;;;;;;4992757;28;19926;-75
2022/05/30 10:30:52;;;;;;;;;;;17.70;96.60;;;;;;5008567;28;19929;-75
2022/05/30 10:33:37;;;;;;;;;;;17.60;96.50;;;;;;5011130;28;19925;-73
2022/05/30 10:36:10;;;;;;;;;;;17.50;95.80;;;;;;4992180;28;19926;-72
2022/05/30 10:38:39;;;;;;;;;;;18.30;96.80;;;;;;4991227;28;19926;-74
2022/05/30 10:41:09;;;;;;;;;;;18.40;96.00;;;;;;4992098;28;20016;-72
2022/05/30 10:43:53;;;;;;;;;;;18.40;94.90;;;;;;4992886;28;19926;-69
2022/05/30 10:46:31;;;;;;;;;;;17.90;94.60;;;;;;4992629;28;19932;-75
2022/05/30 10:48:56;;;;;;;;;;;17.50;96.10;;;;;;4995585;28;20374;-74
2022/05/30 10:51:25;;;;;;;;;;;17.20;97.70;;;;;;5006461;28;19952;-72
2022/05/30 10:53:50;;;;;;;;;;;17.10;97.90;;;;;;5003257;28;20021;-74
2022/05/30 10:56:21;;;;;;;;;;;17.10;98.40;;;;;;4992565;28;20020;-81
2022/05/30 10:58:54;;;;;;;;;;;17.10;97.50;;;;;;5003635;28;19926;-72
2022/05/30 11:01:32;;;;;;;;;;;17.20;98.20;;;;;;5010527;28;20281;-73
2022/05/30 11:04:16;;;;;;;;;;;17.70;97.30;;;;;;5011267;28;19925;-72
2022/05/30 11:06:44;;;;;;;;;;;18.10;96.60;;;;;;5007454;28;19937;-74
2022/05/30 11:09:14;;;;;;;;;;;18.10;96.30;;;;;;4992490;28;19929;-73
2022/05/30 11:11:40;;;;;;;;;;;18.10;95.80;;;;;;4991587;28;19933;-71
2022/05/30 11:14:23;;;;;;;;;;;18.20;96.80;;;;;;5013447;28;19926;-75
2022/05/30 11:16:54;;;;;;;;;;;18.10;96.70;;;;;;5017683;28;19933;-75
2022/05/30 11:19:23;;;;;;;;;;;18.50;96.20;;;;;;5007084;28;19929;-76
2022/05/30 11:21:52;;;;;;;;;;;18.80;96.00;;;;;;5024349;28;19976;-74
2022/05/30 11:24:18;;;;;;;;;;;18.90;97.50;;;;;;4997402;28;19933;-74
2022/05/30 11:27:02;;;;;;;;;;;18.60;98.50;;;;;;4991963;28;19926;-74
2022/05/30 11:29:49;;;;;;;;;;;18.80;99.90;;;;;;4991916;28;19929;-72
2022/05/30 11:32:27;;;;;;;;;;;18.30;99.90;;;;;;5021704;28;19944;-73
2022/05/30 11:34:52;;;;;;;;;;;18.40;99.90;;;;;;5007659;28;19930;-72
2022/05/30 11:37:18;;;;;;;;;;;18.20;98.10;;;;;;5003316;28;20333;-75
2022/05/30 11:39:43;;;;;;;;;;;18.20;99.60;;;;;;5010886;28;19933;-72
2022/05/30 11:42:09;;;;;;;;;;;18.20;99.60;;;;;;5012255;28;20327;-76
2022/05/30 11:44:37;;;;;;;;;;;18.10;99.70;;;;;;5011563;28;19926;-73
2022/05/30 11:47:03;;;;;;;;;;;17.90;99.00;;;;;;5010146;28;20405;-72
2022/05/30 11:49:29;;;;;;;;;;;17.80;99.30;;;;;;4993092;28;20333;-72
2022/05/30 11:52:00;;;;;;;;;;;17.50;98.20;;;;;;4991141;28;19926;-74
2022/05/30 11:54:35;;;;;;;;;;;17.30;99.60;;;;;;4990733;28;20388;-73
2022/05/30 11:57:21;;;;;;;;;;;17.00;99.90;;;;;;4990174;28;20381;-74
2022/05/30 11:59:49;;;;;;;;;;;17.50;99.90;;;;;;4991141;28;19929;-75
2022/05/30 12:02:17;;;;;;;;;;;17.30;99.60;;;;;;4992983;28;19926;-76
2022/05/30 12:05:05;;;;;;;;;;;17.60;99.90;;;;;;4999837;28;20298;-73
2022/05/30 12:07:30;;;;;;;;;;;17.60;99.90;;;;;;5005421;28;20011;-74
2022/05/30 12:10:16;;;;;;;;;;;16.50;99.90;;;;;;5012048;28;20034;-73
2022/05/30 12:12:49;;;;;;;;;;;16.50;99.90;;;;;;5011153;28;20274;-72
2022/05/30 12:15:21;;;;;;;;;;;17.00;99.90;;;;;;5011590;28;19984;-75
2022/05/30 12:23:48;;;;;;;;;;;17.40;99.90;;;;;;5013276;28;19929;-76
2022/05/30 12:26:01;;;;;;;;;;;18.20;99.90;;;;;;5013407;28;20012;-75
2022/05/30 12:28:27;;;;;;;;;;;18.30;99.50;;;;;;5022606;28;19926;-76
2022/05/30 12:30:56;;;;;;;;;;;18.40;99.90;;;;;;5016697;28;19940;-75
2022/05/30 12:33:28;;;;;;;;;;;18.80;99.30;;;;;;5032799;28;19930;-75
2022/05/30 12:36:17;;;;;;;;;;;18.90;98.70;;;;;;5024023;28;19925;-75
2022/05/30 12:38:57;;;;;;;;;;;18.80;96.60;;;;;;5003805;28;19926;-74
2022/05/30 12:41:28;;;;;;;;;;;18.80;98.20;;;;;;5005510;28;19983;-73
2022/05/30 12:43:55;;;;;;;;;;;18.90;98.00;;;;;;5001785;28;19972;-73
2022/05/30 12:46:25;;;;;;;;;;;18.90;96.90;;;;;;5004928;28;19930;-72
2022/05/30 12:48:52;;;;;;;;;;;18.90;97.60;;;;;;5004020;28;19930;-73
2022/05/30 12:51:24;;;;;;;;;;;18.70;96.60;;;;;;5003182;28;19925;-70
2022/05/30 12:54:12;;;;;;;;;;;18.80;97.00;;;;;;5007891;28;19925;-72
2022/05/30 12:56:38;;;;;;;;;;;18.60;97.00;;;;;;4999352;28;19932;-75
2022/05/30 12:59:03;;;;;;;;;;;18.50;98.30;;;;;;5002300;28;20289;-75
2022/05/30 13:01:44;;;;;;;;;;;18.30;97.70;;;;;;5003868;28;19925;-74
2022/05/30 13:04:15;;;;;;;;;;;18.40;98.00;;;;;;5012444;28;20317;-74
2022/05/30 13:07:04;;;;;;;;;;;18.40;98.10;;;;;;5014248;28;20346;-74
2022/05/30 13:09:43;;;;;;;;;;;18.70;98.40;;;;;;5004996;28;20378;-74
2022/05/30 13:12:17;;;;;;;;;;;19.00;97.00;;;;;;5011874;28;19926;-74
2022/05/30 13:14:48;;;;;;;;;;;18.90;97.30;;;;;;5013633;28;19971;-77
2022/05/30 13:17:23;;;;;;;;;;;18.70;97.20;;;;;;5033639;28;19926;-75
2022/05/30 13:19:58;;;;;;;;;;;18.60;96.60;;;;;;5033211;28;20430;-73
2022/05/30 13:22:26;;;;;;;;;;;18.60;97.40;;;;;;5032125;28;19926;-76
2022/05/30 13:24:52;;;;;;;;;;;18.70;97.90;;;;;;5032536;28;19936;-73
2022/05/30 13:27:18;;;;;;;;;;;18.40;97.10;;;;;;5015285;28;19925;-76
2022/05/30 13:29:44;;;;;;;;;;;18.50;97.30;;;;;;5032960;28;19948;-72
2022/05/30 13:32:13;;;;;;;;;;;18.10;98.00;;;;;;5033342;28;20292;-70
2022/05/30 13:34:43;;;;;;;;;;;17.90;96.70;;;;;;5004708;28;20289;-70
2022/05/30 13:37:08;;;;;;;;;;;17.60;97.80;;;;;;5005463;28;19925;-69
2022/05/30 13:39:34;;;;;;;;;;;17.20;97.20;;;;;;5010318;28;20285;-72
2022/05/30 13:41:59;;;;;;;;;;;17.00;98.30;;;;;;5011813;28;19925;-71
2022/05/30 13:44:29;;;;;;;;;;;16.90;99.10;;;;;;5010198;28;19930;-72
2022/05/30 13:46:56;;;;;;;;;;;16.80;99.50;;;;;;5011492;28;20008;-69
2022/05/30 13:49:29;;;;;;;;;;;16.80;98.80;;;;;;5010485;28;19930;-70
2022/05/30 13:51:54;;;;;;;;;;;16.80;98.40;;;;;;5012416;28;19925;-71
2022/05/30 13:54:21;;;;;;;;;;;16.70;97.60;;;;;;5011237;28;19926;-69
2022/05/30 13:56:51;;;;;;;;;;;16.50;98.90;;;;;;5012217;28;19926;-70
2022/05/30 13:59:35;;;;;;;;;;;16.70;99.70;;;;;;5012147;28;19930;-70
2022/05/30 14:02:03;;;;;;;;;;;16.90;98.60;;;;;;5006063;28;19932;-70
2022/05/30 14:04:33;;;;;;;;;;;17.00;98.00;;;;;;5002486;28;20381;-70
2022/05/30 14:06:59;;;;;;;;;;;17.20;97.90;;;;;;5008072;28;20328;-69
2022/05/30 14:09:24;;;;;;;;;;;17.30;99.10;;;;;;4995474;28;19995;-70
2022/05/30 14:11:57;;;;;;;;;;;17.40;97.40;;;;;;5012281;28;19956;-69
2022/05/30 14:14:39;;;;;;;;;;;17.30;97.70;;;;;;5002510;28;19969;-73
2022/05/30 14:17:05;;;;;;;;;;;17.40;97.60;;;;;;5011478;28;19929;-70
2022/05/30 14:19:34;;;;;;;;;;;17.60;97.00;;;;;;5011308;28;20443;-70
2022/05/30 14:22:06;;;;;;;;;;;17.60;96.80;;;;;;5011233;28;19926;-70
2022/05/30 14:24:33;;;;;;;;;;;17.50;96.30;;;;;;5000335;28;20130;-70
2022/05/30 14:26:59;;;;;;;;;;;17.60;96.50;;;;;;4996089;28;20337;-70
2022/05/30 14:29:28;;;;;;;;;;;17.40;97.80;;;;;;4990903;28;19933;-69
2022/05/30 14:32:13;;;;;;;;;;;17.50;97.30;;;;;;5011000;28;19926;-70
2022/05/30 14:34:42;;;;;;;;;;;17.60;97.20;;;;;;5010896;28;19926;-70
2022/05/30 14:37:15;;;;;;;;;;;17.70;97.70;;;;;;5011645;28;19980;-69
2022/05/30 14:39:46;;;;;;;;;;;17.80;97.50;;;;;;5011046;28;19926;-70
2022/05/30 14:42:17;;;;;;;;;;;17.90;95.90;;;;;;4999900;28;19993;-71
2022/05/30 14:44:50;;;;;;;;;;;18.10;95.90;;;;;;4992550;28;20290;-72
2022/05/30 14:47:32;;;;;;;;;;;18.10;95.70;;;;;;4992524;28;19926;-72
2022/05/30 14:50:03;;;;;;;;;;;18.00;95.10;;;;;;4991696;28;20329;-73
2022/05/30 14:52:32;;;;;;;;;;;18.30;96.20;;;;;;4992207;28;20464;-73
2022/05/30 14:55:02;;;;;;;;;;;18.40;95.80;;;;;;4992974;28;20385;-73